sensor_id;sensor_type;location;lat;lon;timestamp;P1;durP1;ratioP1;P2;durP2;ratioP2
669;SDS011;317;48.758;9.302;2022-08-19T00:01:53;15.07;;;13.60;;
669;SDS011;317;48.758;9.302;2022-08-19T00:04:22;13.43;;;12.23;;
669;SDS011;317;48.758;9.302;2022-08-19T00:06:52;14.40;;;13.33;;
669;SDS011;317;48.758;9.302;2022-08-19T00:09:19;14.63;;;13.47;;
669;SDS011;317;48.758;9.302;2022-08-19T00:11:49;14.93;;;13.70;;
669;SDS011;317;48.758;9.302;2022-08-19T00:14:17;15.17;;;14.03;;
669;SDS011;317;48.758;9.302;2022-08-19T00:16:45;15.63;;;14.03;;
669;SDS011;317;48.758;9.302;2022-08-19T00:19:13;17.03;;;15.67;;
669;SDS011;317;48.758;9.302;2022-08-19T00:21:40;15.30;;;14.20;;
669;SDS011;317;48.758;9.302;2022-08-19T00:24:09;16.40;;;15.30;;
669;SDS011;317;48.758;9.302;2022-08-19T00:26:37;16.33;;;15.17;;
669;SDS011;317;48.758;9.302;2022-08-19T00:29:06;15.73;;;14.53;;
669;SDS011;317;48.758;9.302;2022-08-19T00:31:34;13.80;;;12.40;;
669;SDS011;317;48.758;9.302;2022-08-19T00:34:01;16.10;;;14.80;;
669;SDS011;317;48.758;9.302;2022-08-19T00:36:29;17.27;;;15.97;;
669;SDS011;317;48.758;9.302;2022-08-19T00:38:57;17.00;;;15.60;;
669;SDS011;317;48.758;9.302;2022-08-19T00:41:24;14.87;;;13.67;;
669;SDS011;317;48.758;9.302;2022-08-19T00:43:59;15.60;;;14.20;;
669;SDS011;317;48.758;9.302;2022-08-19T00:46:29;17.17;;;15.87;;
669;SDS011;317;48.758;9.302;2022-08-19T00:48:56;15.77;;;14.67;;
669;SDS011;317;48.758;9.302;2022-08-19T00:51:24;16.20;;;14.70;;
669;SDS011;317;48.758;9.302;2022-08-19T00:53:52;15.93;;;14.73;;
669;SDS011;317;48.758;9.302;2022-08-19T00:56:19;16.60;;;15.10;;
669;SDS011;317;48.758;9.302;2022-08-19T00:58:46;15.87;;;14.77;;
669;SDS011;317;48.758;9.302;2022-08-19T01:01:14;15.57;;;14.37;;
669;SDS011;317;48.758;9.302;2022-08-19T01:03:42;14.97;;;13.40;;
669;SDS011;317;48.758;9.302;2022-08-19T01:06:09;15.17;;;13.90;;
669;SDS011;317;48.758;9.302;2022-08-19T01:08:36;17.03;;;15.60;;
669;SDS011;317;48.758;9.302;2022-08-19T01:11:03;16.23;;;15.07;;
669;SDS011;317;48.758;9.302;2022-08-19T01:13:30;18.40;;;16.93;;
669;SDS011;317;48.758;9.302;2022-08-19T01:16:00;16.60;;;15.30;;
669;SDS011;317;48.758;9.302;2022-08-19T01:18:29;16.80;;;15.40;;
669;SDS011;317;48.758;9.302;2022-08-19T01:21:00;16.47;;;15.20;;
669;SDS011;317;48.758;9.302;2022-08-19T01:23:32;15.53;;;14.30;;
669;SDS011;317;48.758;9.302;2022-08-19T01:26:09;12.93;;;11.80;;
669;SDS011;317;48.758;9.302;2022-08-19T01:28:37;13.00;;;11.90;;
669;SDS011;317;48.758;9.302;2022-08-19T01:31:04;14.83;;;13.63;;
669;SDS011;317;48.758;9.302;2022-08-19T01:33:32;13.00;;;11.73;;
669;SDS011;317;48.758;9.302;2022-08-19T01:36:07;16.97;;;15.53;;
669;SDS011;317;48.758;9.302;2022-08-19T01:38:38;14.13;;;12.73;;
669;SDS011;317;48.758;9.302;2022-08-19T01:41:07;13.60;;;12.43;;
669;SDS011;317;48.758;9.302;2022-08-19T01:43:35;16.10;;;14.80;;
669;SDS011;317;48.758;9.302;2022-08-19T01:46:02;16.33;;;14.67;;
669;SDS011;317;48.758;9.302;2022-08-19T01:48:32;14.73;;;13.33;;
669;SDS011;317;48.758;9.302;2022-08-19T01:51:01;15.13;;;13.83;;
669;SDS011;317;48.758;9.302;2022-08-19T01:53:28;17.07;;;15.67;;
669;SDS011;317;48.758;9.302;2022-08-19T01:55:56;14.07;;;12.63;;
669;SDS011;317;48.758;9.302;2022-08-19T01:58:24;13.63;;;12.23;;
669;SDS011;317;48.758;9.302;2022-08-19T02:00:55;15.50;;;14.20;;
669;SDS011;317;48.758;9.302;2022-08-19T02:03:22;16.53;;;15.30;;
669;SDS011;317;48.758;9.302;2022-08-19T02:05:53;14.97;;;13.57;;
669;SDS011;317;48.758;9.302;2022-08-19T02:08:21;14.50;;;13.00;;
669;SDS011;317;48.758;9.302;2022-08-19T02:10:48;14.60;;;13.30;;
669;SDS011;317;48.758;9.302;2022-08-19T02:13:17;16.60;;;15.10;;
669;SDS011;317;48.758;9.302;2022-08-19T02:15:44;17.37;;;15.87;;
669;SDS011;317;48.758;9.302;2022-08-19T02:18:10;16.87;;;15.57;;
669;SDS011;317;48.758;9.302;2022-08-19T02:20:37;16.93;;;15.73;;
669;SDS011;317;48.758;9.302;2022-08-19T02:23:06;17.73;;;16.33;;
669;SDS011;317;48.758;9.302;2022-08-19T02:25:33;17.20;;;15.87;;
669;SDS011;317;48.758;9.302;2022-08-19T02:28:00;18.77;;;16.97;;
669;SDS011;317;48.758;9.302;2022-08-19T02:30:29;17.83;;;16.33;;
669;SDS011;317;48.758;9.302;2022-08-19T02:32:56;14.10;;;12.80;;
669;SDS011;317;48.758;9.302;2022-08-19T02:35:23;17.80;;;15.87;;
669;SDS011;317;48.758;9.302;2022-08-19T02:37:50;18.90;;;17.43;;
669;SDS011;317;48.758;9.302;2022-08-19T02:40:35;17.67;;;15.80;;
669;SDS011;317;48.758;9.302;2022-08-19T02:43:02;16.50;;;14.90;;
669;SDS011;317;48.758;9.302;2022-08-19T02:45:32;17.67;;;15.87;;
669;SDS011;317;48.758;9.302;2022-08-19T02:47:59;21.03;;;19.33;;
669;SDS011;317;48.758;9.302;2022-08-19T02:50:26;20.23;;;18.63;;
669;SDS011;317;48.758;9.302;2022-08-19T02:52:53;21.90;;;20.00;;
669;SDS011;317;48.758;9.302;2022-08-19T02:55:19;22.37;;;20.47;;
669;SDS011;317;48.758;9.302;2022-08-19T02:57:46;21.57;;;19.70;;
669;SDS011;317;48.758;9.302;2022-08-19T03:00:14;23.23;;;21.33;;
669;SDS011;317;48.758;9.302;2022-08-19T03:02:42;21.43;;;19.57;;
669;SDS011;317;48.758;9.302;2022-08-19T03:05:09;22.03;;;20.17;;
669;SDS011;317;48.758;9.302;2022-08-19T03:07:36;20.63;;;18.90;;
669;SDS011;317;48.758;9.302;2022-08-19T03:10:04;21.70;;;19.80;;
669;SDS011;317;48.758;9.302;2022-08-19T03:12:34;20.97;;;18.80;;
669;SDS011;317;48.758;9.302;2022-08-19T03:15:02;21.80;;;19.90;;
669;SDS011;317;48.758;9.302;2022-08-19T03:17:30;21.50;;;19.30;;
669;SDS011;317;48.758;9.302;2022-08-19T03:19:58;24.03;;;21.83;;
669;SDS011;317;48.758;9.302;2022-08-19T03:22:25;22.80;;;20.53;;
669;SDS011;317;48.758;9.302;2022-08-19T03:24:52;23.53;;;21.60;;
669;SDS011;317;48.758;9.302;2022-08-19T03:27:19;23.17;;;21.20;;
669;SDS011;317;48.758;9.302;2022-08-19T03:29:46;23.90;;;21.87;;
669;SDS011;317;48.758;9.302;2022-08-19T03:32:12;22.37;;;20.47;;
669;SDS011;317;48.758;9.302;2022-08-19T03:34:39;24.13;;;22.07;;
669;SDS011;317;48.758;9.302;2022-08-19T03:37:08;24.60;;;22.67;;
669;SDS011;317;48.758;9.302;2022-08-19T03:39:38;24.10;;;22.20;;
669;SDS011;317;48.758;9.302;2022-08-19T03:42:07;24.50;;;22.50;;
669;SDS011;317;48.758;9.302;2022-08-19T03:44:34;24.43;;;22.30;;
669;SDS011;317;48.758;9.302;2022-08-19T03:47:03;23.57;;;21.60;;
669;SDS011;317;48.758;9.302;2022-08-19T03:49:30;24.33;;;22.23;;
669;SDS011;317;48.758;9.302;2022-08-19T03:52:00;24.07;;;22.10;;
669;SDS011;317;48.758;9.302;2022-08-19T03:54:28;24.40;;;22.40;;
669;SDS011;317;48.758;9.302;2022-08-19T03:56:55;24.67;;;22.60;;
669;SDS011;317;48.758;9.302;2022-08-19T03:59:25;23.03;;;21.13;;
669;SDS011;317;48.758;9.302;2022-08-19T04:01:53;24.90;;;22.80;;
669;SDS011;317;48.758;9.302;2022-08-19T04:04:21;25.27;;;23.07;;
669;SDS011;317;48.758;9.302;2022-08-19T04:06:49;25.07;;;22.97;;
669;SDS011;317;48.758;9.302;2022-08-19T04:09:17;25.90;;;23.83;;
669;SDS011;317;48.758;9.302;2022-08-19T04:11:46;24.27;;;22.30;;
669;SDS011;317;48.758;9.302;2022-08-19T04:14:17;21.40;;;19.40;;
669;SDS011;317;48.758;9.302;2022-08-19T04:16:45;22.27;;;20.33;;
669;SDS011;317;48.758;9.302;2022-08-19T04:19:13;26.50;;;23.90;;
669;SDS011;317;48.758;9.302;2022-08-19T04:21:42;22.47;;;20.17;;
669;SDS011;317;48.758;9.302;2022-08-19T04:24:10;21.67;;;19.50;;
669;SDS011;317;48.758;9.302;2022-08-19T04:26:37;23.60;;;21.60;;
669;SDS011;317;48.758;9.302;2022-08-19T04:29:07;21.57;;;19.37;;
669;SDS011;317;48.758;9.302;2022-08-19T04:31:35;25.17;;;22.87;;
669;SDS011;317;48.758;9.302;2022-08-19T04:34:04;26.47;;;24.00;;
669;SDS011;317;48.758;9.302;2022-08-19T04:36:32;27.10;;;24.67;;
669;SDS011;317;48.758;9.302;2022-08-19T04:39:04;22.53;;;20.20;;
669;SDS011;317;48.758;9.302;2022-08-19T04:41:32;25.10;;;22.80;;
669;SDS011;317;48.758;9.302;2022-08-19T04:44:18;28.83;;;26.53;;
669;SDS011;317;48.758;9.302;2022-08-19T04:46:45;26.63;;;24.43;;
669;SDS011;317;48.758;9.302;2022-08-19T04:49:13;26.93;;;24.53;;
669;SDS011;317;48.758;9.302;2022-08-19T04:51:43;25.87;;;23.63;;
669;SDS011;317;48.758;9.302;2022-08-19T04:54:12;28.07;;;25.63;;
669;SDS011;317;48.758;9.302;2022-08-19T04:56:39;28.87;;;26.47;;
669;SDS011;317;48.758;9.302;2022-08-19T04:59:06;26.17;;;24.07;;
669;SDS011;317;48.758;9.302;2022-08-19T05:01:34;27.00;;;24.60;;
669;SDS011;317;48.758;9.302;2022-08-19T05:04:03;26.17;;;23.87;;
669;SDS011;317;48.758;9.302;2022-08-19T05:06:32;28.20;;;25.97;;
669;SDS011;317;48.758;9.302;2022-08-19T05:09:00;25.23;;;23.13;;
669;SDS011;317;48.758;9.302;2022-08-19T05:11:29;25.93;;;23.73;;
669;SDS011;317;48.758;9.302;2022-08-19T05:13:58;25.27;;;23.20;;
669;SDS011;317;48.758;9.302;2022-08-19T05:16:25;27.57;;;25.17;;
669;SDS011;317;48.758;9.302;2022-08-19T05:18:54;28.30;;;26.00;;
669;SDS011;317;48.758;9.302;2022-08-19T05:21:39;25.50;;;23.30;;
669;SDS011;317;48.758;9.302;2022-08-19T05:24:24;27.73;;;25.50;;
669;SDS011;317;48.758;9.302;2022-08-19T05:26:52;26.83;;;24.67;;
669;SDS011;317;48.758;9.302;2022-08-19T05:29:22;29.97;;;27.30;;
669;SDS011;317;48.758;9.302;2022-08-19T05:31:50;28.60;;;25.93;;
669;SDS011;317;48.758;9.302;2022-08-19T05:34:20;25.20;;;23.00;;
669;SDS011;317;48.758;9.302;2022-08-19T05:36:50;28.83;;;26.43;;
669;SDS011;317;48.758;9.302;2022-08-19T05:39:20;27.37;;;25.23;;
669;SDS011;317;48.758;9.302;2022-08-19T05:41:48;27.13;;;24.90;;
669;SDS011;317;48.758;9.302;2022-08-19T05:44:17;31.67;;;28.53;;
669;SDS011;317;48.758;9.302;2022-08-19T05:46:45;27.03;;;24.80;;
669;SDS011;317;48.758;9.302;2022-08-19T05:49:13;24.47;;;22.30;;
669;SDS011;317;48.758;9.302;2022-08-19T05:51:42;24.47;;;22.17;;
669;SDS011;317;48.758;9.302;2022-08-19T05:54:12;23.63;;;21.23;;
669;SDS011;317;48.758;9.302;2022-08-19T05:56:39;21.70;;;19.60;;
669;SDS011;317;48.758;9.302;2022-08-19T05:59:07;20.70;;;18.70;;
669;SDS011;317;48.758;9.302;2022-08-19T06:01:36;21.73;;;19.00;;
669;SDS011;317;48.758;9.302;2022-08-19T06:04:04;25.63;;;23.23;;
669;SDS011;317;48.758;9.302;2022-08-19T06:06:31;27.30;;;24.97;;
669;SDS011;317;48.758;9.302;2022-08-19T06:09:01;27.90;;;25.60;;
669;SDS011;317;48.758;9.302;2022-08-19T06:11:32;22.80;;;20.40;;
669;SDS011;317;48.758;9.302;2022-08-19T06:14:02;24.47;;;22.07;;
669;SDS011;317;48.758;9.302;2022-08-19T06:16:34;24.33;;;21.83;;
669;SDS011;317;48.758;9.302;2022-08-19T06:19:04;24.37;;;22.07;;
669;SDS011;317;48.758;9.302;2022-08-19T06:21:34;23.57;;;21.27;;
669;SDS011;317;48.758;9.302;2022-08-19T06:24:04;25.50;;;21.50;;
669;SDS011;317;48.758;9.302;2022-08-19T06:26:35;22.27;;;19.97;;
669;SDS011;317;48.758;9.302;2022-08-19T06:29:04;24.80;;;22.57;;
669;SDS011;317;48.758;9.302;2022-08-19T06:31:32;24.27;;;22.00;;
669;SDS011;317;48.758;9.302;2022-08-19T06:34:01;24.43;;;21.70;;
669;SDS011;317;48.758;9.302;2022-08-19T06:36:29;24.33;;;22.00;;
669;SDS011;317;48.758;9.302;2022-08-19T06:38:59;29.20;;;26.80;;
669;SDS011;317;48.758;9.302;2022-08-19T06:41:29;28.93;;;26.53;;
669;SDS011;317;48.758;9.302;2022-08-19T06:43:57;29.43;;;27.13;;
669;SDS011;317;48.758;9.302;2022-08-19T06:46:24;28.03;;;25.80;;
669;SDS011;317;48.758;9.302;2022-08-19T06:48:52;23.63;;;21.43;;
669;SDS011;317;48.758;9.302;2022-08-19T06:51:20;22.73;;;20.63;;
669;SDS011;317;48.758;9.302;2022-08-19T06:53:51;25.47;;;22.83;;
669;SDS011;317;48.758;9.302;2022-08-19T06:56:20;23.23;;;20.90;;
669;SDS011;317;48.758;9.302;2022-08-19T06:58:51;24.60;;;21.97;;
669;SDS011;317;48.758;9.302;2022-08-19T07:01:18;23.43;;;20.93;;
669;SDS011;317;48.758;9.302;2022-08-19T07:03:46;25.77;;;22.50;;
669;SDS011;317;48.758;9.302;2022-08-19T07:06:14;25.20;;;22.80;;
669;SDS011;317;48.758;9.302;2022-08-19T07:08:43;24.37;;;21.87;;
669;SDS011;317;48.758;9.302;2022-08-19T07:11:11;27.07;;;22.30;;
669;SDS011;317;48.758;9.302;2022-08-19T07:13:40;24.67;;;21.80;;
669;SDS011;317;48.758;9.302;2022-08-19T07:16:11;26.23;;;23.53;;
669;SDS011;317;48.758;9.302;2022-08-19T07:18:40;23.93;;;21.60;;
669;SDS011;317;48.758;9.302;2022-08-19T07:21:10;28.70;;;26.30;;
669;SDS011;317;48.758;9.302;2022-08-19T07:23:40;30.40;;;27.70;;
669;SDS011;317;48.758;9.302;2022-08-19T07:26:08;29.10;;;26.70;;
669;SDS011;317;48.758;9.302;2022-08-19T07:28:38;24.90;;;22.40;;
669;SDS011;317;48.758;9.302;2022-08-19T07:31:05;30.97;;;22.30;;
669;SDS011;317;48.758;9.302;2022-08-19T07:33:34;28.73;;;22.83;;
669;SDS011;317;48.758;9.302;2022-08-19T07:36:02;26.17;;;23.70;;
669;SDS011;317;48.758;9.302;2022-08-19T07:38:29;26.53;;;23.73;;
669;SDS011;317;48.758;9.302;2022-08-19T07:40:56;23.33;;;21.07;;
669;SDS011;317;48.758;9.302;2022-08-19T07:43:23;29.83;;;27.43;;
669;SDS011;317;48.758;9.302;2022-08-19T07:45:51;30.80;;;28.10;;
669;SDS011;317;48.758;9.302;2022-08-19T07:48:21;30.60;;;27.63;;
669;SDS011;317;48.758;9.302;2022-08-19T07:50:52;29.40;;;26.70;;
669;SDS011;317;48.758;9.302;2022-08-19T07:53:20;24.53;;;22.33;;
669;SDS011;317;48.758;9.302;2022-08-19T07:55:47;30.03;;;27.13;;
669;SDS011;317;48.758;9.302;2022-08-19T07:58:17;24.13;;;21.73;;
669;SDS011;317;48.758;9.302;2022-08-19T08:00:46;28.53;;;26.20;;
669;SDS011;317;48.758;9.302;2022-08-19T08:03:15;22.97;;;20.77;;
669;SDS011;317;48.758;9.302;2022-08-19T08:05:45;22.77;;;20.57;;
669;SDS011;317;48.758;9.302;2022-08-19T08:08:33;24.27;;;21.77;;
669;SDS011;317;48.758;9.302;2022-08-19T08:11:19;23.97;;;20.20;;
669;SDS011;317;48.758;9.302;2022-08-19T08:13:47;24.97;;;22.53;;
669;SDS011;317;48.758;9.302;2022-08-19T08:16:14;28.03;;;25.83;;
669;SDS011;317;48.758;9.302;2022-08-19T08:18:41;29.57;;;26.90;;
669;SDS011;317;48.758;9.302;2022-08-19T08:21:08;23.87;;;21.47;;
669;SDS011;317;48.758;9.302;2022-08-19T08:23:37;22.20;;;20.00;;
669;SDS011;317;48.758;9.302;2022-08-19T08:26:03;21.93;;;19.80;;
669;SDS011;317;48.758;9.302;2022-08-19T08:28:30;29.40;;;27.00;;
669;SDS011;317;48.758;9.302;2022-08-19T08:30:57;27.33;;;25.23;;
669;SDS011;317;48.758;9.302;2022-08-19T08:33:26;26.37;;;24.17;;
669;SDS011;317;48.758;9.302;2022-08-19T08:35:55;28.53;;;26.03;;
669;SDS011;317;48.758;9.302;2022-08-19T08:38:22;26.60;;;24.20;;
669;SDS011;317;48.758;9.302;2022-08-19T08:40:52;23.90;;;21.30;;
669;SDS011;317;48.758;9.302;2022-08-19T08:43:27;21.63;;;19.77;;
669;SDS011;317;48.758;9.302;2022-08-19T08:45:59;22.73;;;20.43;;
669;SDS011;317;48.758;9.302;2022-08-19T08:48:34;21.53;;;19.53;;
669;SDS011;317;48.758;9.302;2022-08-19T08:51:05;21.27;;;19.03;;
669;SDS011;317;48.758;9.302;2022-08-19T08:53:37;20.17;;;18.17;;
669;SDS011;317;48.758;9.302;2022-08-19T08:56:07;20.77;;;18.57;;
669;SDS011;317;48.758;9.302;2022-08-19T08:58:44;22.83;;;18.53;;
669;SDS011;317;48.758;9.302;2022-08-19T09:01:17;20.40;;;18.30;;
669;SDS011;317;48.758;9.302;2022-08-19T09:03:44;21.40;;;19.20;;
669;SDS011;317;48.758;9.302;2022-08-19T09:06:12;22.77;;;20.67;;
669;SDS011;317;48.758;9.302;2022-08-19T09:08:47;20.10;;;18.07;;
669;SDS011;317;48.758;9.302;2022-08-19T09:11:22;19.80;;;17.27;;
669;SDS011;317;48.758;9.302;2022-08-19T09:14:02;20.57;;;18.73;;
669;SDS011;317;48.758;9.302;2022-08-19T09:16:41;26.70;;;24.30;;
669;SDS011;317;48.758;9.302;2022-08-19T09:19:08;25.80;;;23.73;;
669;SDS011;317;48.758;9.302;2022-08-19T09:21:35;25.73;;;23.70;;
669;SDS011;317;48.758;9.302;2022-08-19T09:24:03;24.10;;;22.00;;
669;SDS011;317;48.758;9.302;2022-08-19T09:26:32;19.50;;;17.70;;
669;SDS011;317;48.758;9.302;2022-08-19T09:29:00;21.53;;;19.27;;
669;SDS011;317;48.758;9.302;2022-08-19T09:31:30;22.33;;;19.17;;
669;SDS011;317;48.758;9.302;2022-08-19T09:33:57;20.13;;;18.27;;
669;SDS011;317;48.758;9.302;2022-08-19T09:36:27;21.27;;;19.27;;
669;SDS011;317;48.758;9.302;2022-08-19T09:38:57;21.80;;;19.60;;
669;SDS011;317;48.758;9.302;2022-08-19T09:41:25;22.73;;;17.87;;
669;SDS011;317;48.758;9.302;2022-08-19T09:43:57;20.80;;;18.90;;
669;SDS011;317;48.758;9.302;2022-08-19T09:46:25;20.80;;;18.83;;
669;SDS011;317;48.758;9.302;2022-08-19T09:48:53;22.23;;;20.13;;
669;SDS011;317;48.758;9.302;2022-08-19T09:51:24;19.23;;;17.23;;
669;SDS011;317;48.758;9.302;2022-08-19T09:53:53;21.67;;;19.67;;
669;SDS011;317;48.758;9.302;2022-08-19T09:56:22;21.13;;;18.90;;
669;SDS011;317;48.758;9.302;2022-08-19T09:58:49;21.30;;;18.60;;
669;SDS011;317;48.758;9.302;2022-08-19T10:01:19;23.03;;;18.57;;
669;SDS011;317;48.758;9.302;2022-08-19T10:03:49;21.40;;;19.10;;
669;SDS011;317;48.758;9.302;2022-08-19T10:06:18;21.20;;;19.33;;
669;SDS011;317;48.758;9.302;2022-08-19T10:08:45;21.23;;;19.13;;
669;SDS011;317;48.758;9.302;2022-08-19T10:11:13;18.83;;;17.00;;
669;SDS011;317;48.758;9.302;2022-08-19T10:13:42;24.27;;;22.20;;
669;SDS011;317;48.758;9.302;2022-08-19T10:16:10;23.50;;;21.50;;
669;SDS011;317;48.758;9.302;2022-08-19T10:18:40;19.40;;;17.60;;
669;SDS011;317;48.758;9.302;2022-08-19T10:21:09;24.00;;;21.50;;
669;SDS011;317;48.758;9.302;2022-08-19T10:23:37;24.77;;;22.40;;
669;SDS011;317;48.758;9.302;2022-08-19T10:26:05;24.40;;;22.30;;
669;SDS011;317;48.758;9.302;2022-08-19T10:28:32;25.43;;;23.43;;
669;SDS011;317;48.758;9.302;2022-08-19T10:31:03;26.00;;;23.80;;
669;SDS011;317;48.758;9.302;2022-08-19T10:33:31;21.07;;;18.77;;
669;SDS011;317;48.758;9.302;2022-08-19T10:36:01;21.50;;;19.50;;
669;SDS011;317;48.758;9.302;2022-08-19T10:38:29;25.23;;;17.50;;
669;SDS011;317;48.758;9.302;2022-08-19T10:40:57;22.83;;;18.73;;
669;SDS011;317;48.758;9.302;2022-08-19T10:43:31;19.00;;;17.30;;
669;SDS011;317;48.758;9.302;2022-08-19T10:45:59;20.97;;;18.93;;
669;SDS011;317;48.758;9.302;2022-08-19T10:48:26;19.77;;;17.87;;
669;SDS011;317;48.758;9.302;2022-08-19T10:50:53;20.90;;;19.10;;
669;SDS011;317;48.758;9.302;2022-08-19T10:53:35;21.70;;;19.90;;
669;SDS011;317;48.758;9.302;2022-08-19T10:56:02;23.73;;;21.80;;
669;SDS011;317;48.758;9.302;2022-08-19T10:58:46;20.10;;;17.93;;
669;SDS011;317;48.758;9.302;2022-08-19T11:01:14;20.17;;;18.37;;
669;SDS011;317;48.758;9.302;2022-08-19T11:03:40;21.50;;;19.40;;
669;SDS011;317;48.758;9.302;2022-08-19T11:06:10;21.00;;;18.87;;
669;SDS011;317;48.758;9.302;2022-08-19T11:08:40;22.43;;;20.07;;
669;SDS011;317;48.758;9.302;2022-08-19T11:11:10;20.80;;;18.60;;
669;SDS011;317;48.758;9.302;2022-08-19T11:13:39;22.20;;;20.10;;
669;SDS011;317;48.758;9.302;2022-08-19T11:16:08;22.33;;;20.33;;
669;SDS011;317;48.758;9.302;2022-08-19T11:18:41;23.13;;;20.90;;
669;SDS011;317;48.758;9.302;2022-08-19T11:21:11;24.57;;;21.97;;
669;SDS011;317;48.758;9.302;2022-08-19T11:23:43;20.77;;;18.80;;
669;SDS011;317;48.758;9.302;2022-08-19T11:26:12;28.87;;;26.57;;
669;SDS011;317;48.758;9.302;2022-08-19T11:28:39;27.07;;;25.00;;
669;SDS011;317;48.758;9.302;2022-08-19T11:31:09;22.87;;;20.53;;
669;SDS011;317;48.758;9.302;2022-08-19T11:33:36;23.10;;;20.90;;
669;SDS011;317;48.758;9.302;2022-08-19T11:36:03;22.53;;;20.53;;
669;SDS011;317;48.758;9.302;2022-08-19T11:38:31;24.67;;;22.47;;
669;SDS011;317;48.758;9.302;2022-08-19T11:41:00;31.53;;;28.97;;
669;SDS011;317;48.758;9.302;2022-08-19T11:43:29;25.30;;;22.67;;
669;SDS011;317;48.758;9.302;2022-08-19T11:45:57;26.03;;;23.67;;
669;SDS011;317;48.758;9.302;2022-08-19T11:48:24;31.97;;;29.27;;
669;SDS011;317;48.758;9.302;2022-08-19T11:50:52;23.67;;;21.37;;
669;SDS011;317;48.758;9.302;2022-08-19T11:53:20;25.13;;;22.67;;
669;SDS011;317;48.758;9.302;2022-08-19T11:55:47;24.27;;;21.97;;
669;SDS011;317;48.758;9.302;2022-08-19T11:58:16;25.13;;;22.67;;
669;SDS011;317;48.758;9.302;2022-08-19T12:00:43;21.70;;;19.43;;
669;SDS011;317;48.758;9.302;2022-08-19T12:03:11;22.60;;;20.30;;
669;SDS011;317;48.758;9.302;2022-08-19T12:05:39;22.30;;;20.40;;
669;SDS011;317;48.758;9.302;2022-08-19T12:08:06;30.27;;;27.80;;
669;SDS011;317;48.758;9.302;2022-08-19T12:10:34;26.17;;;23.63;;
669;SDS011;317;48.758;9.302;2022-08-19T12:13:01;24.37;;;22.20;;
669;SDS011;317;48.758;9.302;2022-08-19T12:15:34;25.07;;;22.37;;
669;SDS011;317;48.758;9.302;2022-08-19T12:18:01;22.87;;;20.70;;
669;SDS011;317;48.758;9.302;2022-08-19T12:20:28;25.50;;;23.10;;
669;SDS011;317;48.758;9.302;2022-08-19T12:22:55;24.93;;;22.33;;
669;SDS011;317;48.758;9.302;2022-08-19T12:25:22;25.33;;;22.93;;
669;SDS011;317;48.758;9.302;2022-08-19T12:27:49;24.73;;;22.40;;
669;SDS011;317;48.758;9.302;2022-08-19T12:30:15;31.40;;;28.90;;
669;SDS011;317;48.758;9.302;2022-08-19T12:32:44;33.10;;;30.47;;
669;SDS011;317;48.758;9.302;2022-08-19T12:35:10;32.53;;;29.97;;
669;SDS011;317;48.758;9.302;2022-08-19T12:37:38;26.23;;;23.63;;
669;SDS011;317;48.758;9.302;2022-08-19T12:40:09;31.93;;;29.53;;
669;SDS011;317;48.758;9.302;2022-08-19T12:42:38;32.40;;;29.63;;
669;SDS011;317;48.758;9.302;2022-08-19T12:45:06;27.07;;;24.17;;
669;SDS011;317;48.758;9.302;2022-08-19T12:47:34;26.70;;;24.00;;
669;SDS011;317;48.758;9.302;2022-08-19T12:50:03;25.17;;;21.60;;
669;SDS011;317;48.758;9.302;2022-08-19T12:52:34;25.77;;;23.27;;
669;SDS011;317;48.758;9.302;2022-08-19T12:55:03;31.40;;;28.90;;
669;SDS011;317;48.758;9.302;2022-08-19T12:57:31;32.20;;;29.67;;
669;SDS011;317;48.758;9.302;2022-08-19T13:00:01;31.90;;;29.30;;
669;SDS011;317;48.758;9.302;2022-08-19T13:02:34;33.67;;;30.80;;
669;SDS011;317;48.758;9.302;2022-08-19T13:05:02;23.93;;;21.60;;
669;SDS011;317;48.758;9.302;2022-08-19T13:07:31;25.63;;;23.20;;
669;SDS011;317;48.758;9.302;2022-08-19T13:09:58;32.00;;;29.30;;
669;SDS011;317;48.758;9.302;2022-08-19T13:12:25;25.40;;;22.80;;
669;SDS011;317;48.758;9.302;2022-08-19T13:14:53;26.93;;;24.23;;
669;SDS011;317;48.758;9.302;2022-08-19T13:17:21;25.87;;;23.27;;
669;SDS011;317;48.758;9.302;2022-08-19T13:19:48;22.27;;;20.07;;
669;SDS011;317;48.758;9.302;2022-08-19T13:22:16;23.70;;;21.07;;
669;SDS011;317;48.758;9.302;2022-08-19T13:24:43;24.97;;;22.50;;
669;SDS011;317;48.758;9.302;2022-08-19T13:27:11;23.23;;;21.10;;
669;SDS011;317;48.758;9.302;2022-08-19T13:29:39;24.90;;;22.50;;
669;SDS011;317;48.758;9.302;2022-08-19T13:32:23;26.83;;;24.07;;
669;SDS011;317;48.758;9.302;2022-08-19T13:35:07;24.50;;;22.13;;
669;SDS011;317;48.758;9.302;2022-08-19T13:37:36;26.00;;;23.60;;
669;SDS011;317;48.758;9.302;2022-08-19T13:40:10;26.73;;;24.37;;
669;SDS011;317;48.758;9.302;2022-08-19T13:42:41;35.23;;;32.30;;
669;SDS011;317;48.758;9.302;2022-08-19T13:45:09;31.57;;;29.07;;
669;SDS011;317;48.758;9.302;2022-08-19T13:47:36;26.10;;;23.70;;
669;SDS011;317;48.758;9.302;2022-08-19T13:50:09;26.83;;;24.13;;
669;SDS011;317;48.758;9.302;2022-08-19T13:52:38;27.70;;;24.80;;
669;SDS011;317;48.758;9.302;2022-08-19T13:55:06;25.97;;;23.27;;
669;SDS011;317;48.758;9.302;2022-08-19T13:57:34;28.50;;;25.93;;
669;SDS011;317;48.758;9.302;2022-08-19T14:00:04;28.23;;;25.43;;
669;SDS011;317;48.758;9.302;2022-08-19T14:02:33;26.33;;;23.73;;
669;SDS011;317;48.758;9.302;2022-08-19T14:05:00;26.43;;;23.87;;
669;SDS011;317;48.758;9.302;2022-08-19T14:07:26;34.27;;;31.53;;
669;SDS011;317;48.758;9.302;2022-08-19T14:09:54;35.53;;;32.50;;
669;SDS011;317;48.758;9.302;2022-08-19T14:12:21;26.80;;;24.03;;
669;SDS011;317;48.758;9.302;2022-08-19T14:14:48;26.20;;;23.80;;
669;SDS011;317;48.758;9.302;2022-08-19T14:17:15;26.47;;;24.17;;
669;SDS011;317;48.758;9.302;2022-08-19T14:19:43;26.90;;;24.00;;
669;SDS011;317;48.758;9.302;2022-08-19T14:22:10;30.33;;;24.43;;
669;SDS011;317;48.758;9.302;2022-08-19T14:24:37;25.23;;;22.77;;
669;SDS011;317;48.758;9.302;2022-08-19T14:27:06;25.77;;;23.27;;
669;SDS011;317;48.758;9.302;2022-08-19T14:29:34;26.57;;;23.97;;
669;SDS011;317;48.758;9.302;2022-08-19T14:32:01;25.43;;;23.03;;
669;SDS011;317;48.758;9.302;2022-08-19T14:34:29;35.20;;;32.30;;
669;SDS011;317;48.758;9.302;2022-08-19T14:36:56;35.40;;;32.60;;
669;SDS011;317;48.758;9.302;2022-08-19T14:39:23;31.27;;;28.67;;
669;SDS011;317;48.758;9.302;2022-08-19T14:41:50;27.90;;;25.20;;
669;SDS011;317;48.758;9.302;2022-08-19T14:44:18;25.80;;;23.40;;
669;SDS011;317;48.758;9.302;2022-08-19T14:46:45;24.30;;;21.80;;
669;SDS011;317;48.758;9.302;2022-08-19T14:49:12;24.90;;;22.60;;
669;SDS011;317;48.758;9.302;2022-08-19T14:51:39;24.50;;;22.00;;
669;SDS011;317;48.758;9.302;2022-08-19T14:54:06;24.40;;;22.00;;
669;SDS011;317;48.758;9.302;2022-08-19T14:56:34;30.17;;;27.80;;
669;SDS011;317;48.758;9.302;2022-08-19T14:59:01;29.63;;;27.30;;
669;SDS011;317;48.758;9.302;2022-08-19T15:01:30;28.30;;;26.00;;
669;SDS011;317;48.758;9.302;2022-08-19T15:03:57;29.70;;;27.30;;
669;SDS011;317;48.758;9.302;2022-08-19T15:06:24;23.70;;;21.70;;
669;SDS011;317;48.758;9.302;2022-08-19T15:08:52;21.83;;;19.87;;
669;SDS011;317;48.758;9.302;2022-08-19T15:11:20;21.97;;;19.80;;
669;SDS011;317;48.758;9.302;2022-08-19T15:13:50;24.07;;;21.90;;
669;SDS011;317;48.758;9.302;2022-08-19T15:16:18;22.10;;;19.80;;
669;SDS011;317;48.758;9.302;2022-08-19T15:18:48;19.63;;;17.73;;
669;SDS011;317;48.758;9.302;2022-08-19T15:21:19;28.40;;;25.87;;
669;SDS011;317;48.758;9.302;2022-08-19T15:23:47;25.63;;;23.33;;
669;SDS011;317;48.758;9.302;2022-08-19T15:26:15;22.33;;;20.30;;